Observation data for Denver City on 03/13/2018      Previous  Date  Next       Current Mesonet Observations  Soil Data  Daily Summary Page  Observations in Plain Language
KDVS 130505Z 14006KT 03/M09 A3022 RMK A01 T00271094  RH  040%=      5-min Rain = 0
KDVS 130510Z 14006KT 03/M09 A3022 RMK A01 T00261094  RH  041%=      5-min Rain = 0
KDVS 130515Z 14007KT 03/M09 A3022 RMK A01 T00261094  RH  041%=      5-min Rain = 0
KDVS 130520Z 14006KT 03/M09 A3022 RMK A01 T00261094  RH  041%=      5-min Rain = 0
KDVS 130525Z 14007KT 03/M09 A3022 RMK A01 T00271094  RH  040%=      5-min Rain = 0
KDVS 130530Z 14007KT 03/M10 A3022 RMK A01 T00261095  RH  041%=      5-min Rain = 0
KDVS 130535Z 15006KT 02/M10 A3022 RMK A01 T00241095  RH  041%=      5-min Rain = 0
KDVS 130540Z 15006KT 02/M09 A3022 RMK A01 T00221094  RH  042%=      5-min Rain = 0
KDVS 130545Z 15006KT 02/M09 A3022 RMK A01 T00221093  RH  042%=      5-min Rain = 0
KDVS 130550Z 16007KT 02/M09 A3022 RMK A01 T00231091  RH  042%=      5-min Rain = 0
KDVS 130555Z 16007KT 02/M09 A3022 RMK A01 T00221093  RH  042%=      5-min Rain = 0
KDVS 130600Z 16007KT 02/M09 A3022 RMK A01 T00211093  RH  042%=      5-min Rain = 0
KDVS 130605Z 17006KT 02/M09 A3021 RMK A01 T00211093  RH  042%=      5-min Rain = 0
KDVS 130610Z 17006KT 02/M09 A3021 RMK A01 T00231093  RH  042%=      5-min Rain = 0
KDVS 130615Z 18006KT 03/M09 A3021 RMK A01 T00261092  RH  041%=      5-min Rain = 0
KDVS 130620Z 18006KT 03/M09 A3021 RMK A01 T00291090  RH  041%=      5-min Rain = 0
KDVS 130625Z 18006KT 03/M09 A3021 RMK A01 T00301088  RH  041%=      5-min Rain = 0
KDVS 130630Z 18006KT 03/M09 A3021 RMK A01 T00281086  RH  043%=      5-min Rain = 0
KDVS 130635Z 17008KT 03/M09 A302 RMK A01 T00271088  RH  043%=      5-min Rain = 0
KDVS 130640Z 17008KT 03/M09 A302 RMK A01 T00281091  RH  041%=      5-min Rain = 0
KDVS 130645Z 17008KT 03/M09 A302 RMK A01 T00301092  RH  040%=      5-min Rain = 0
KDVS 130650Z 17008KT 03/M09 A302 RMK A01 T00331092  RH  039%=      5-min Rain = 0
KDVS 130655Z 17007KT 03/M09 A302 RMK A01 T00341093  RH  039%=      5-min Rain = 0
KDVS 130700Z 17008KT 03/M09 A302 RMK A01 T00341094  RH  038%=      5-min Rain = 0
KDVS 130705Z 16008KT 04/M09 A302 RMK A01 T00351093  RH  039%=      5-min Rain = 0
KDVS 130710Z 15007KT 04/M09 A302 RMK A01 T00351092  RH  039%=      5-min Rain = 0
KDVS 130715Z 15007KT 04/M09 A302 RMK A01 T00351093  RH  038%=      5-min Rain = 0
KDVS 130720Z 15006KT 03/M09 A302 RMK A01 T00331094  RH  039%=      5-min Rain = 0
KDVS 130725Z 14005KT 03/M09 A302 RMK A01 T00281094  RH  040%=      5-min Rain = 0
KDVS 130730Z 13004KT 02/M09 A302 RMK A01 T00231094  RH  042%=      5-min Rain = 0
KDVS 130735Z 13004KT 02/M09 A302 RMK A01 T00191093  RH  043%=      5-min Rain = 0
KDVS 130740Z 12003KT 02/M09 A302 RMK A01 T00171093  RH  044%=      5-min Rain = 0
KDVS 130745Z 10003KT 01/M10 A302 RMK A01 T00141096  RH  044%=      5-min Rain = 0
KDVS 130750Z 10003KT 01/M10 A302 RMK A01 T00111096  RH  045%=      5-min Rain = 0
KDVS 130755Z 10003KT 01/M10 A302 RMK A01 T00101096  RH  045%=      5-min Rain = 0
KDVS 130800Z 09003KT 01/M10 A302 RMK A01 T00101096  RH  045%=      5-min Rain = 0
KDVS 130805Z 10003KT 01/M10 A302 RMK A01 T00111096  RH  045%=      5-min Rain = 0
KDVS 130810Z 11003KT 01/M10 A302 RMK A01 T00121095  RH  045%=      5-min Rain = 0
KDVS 130815Z 10003KT 01/M10 A302 RMK A01 T00141095  RH  044%=      5-min Rain = 0
KDVS 130820Z 07003KT 01/M10 A3021 RMK A01 T00131097  RH  043%=      5-min Rain = 0
KDVS 130825Z 07003KT 01/M10 A3021 RMK A01 T00111097  RH  044%=      5-min Rain = 0
KDVS 130830Z 08003KT 01/M10 A302 RMK A01 T00121095  RH  044%=      5-min Rain = 0
KDVS 130835Z 09004KT 01/M09 A302 RMK A01 T00141093  RH  045%=      5-min Rain = 0
KDVS 130840Z 10004KT 02/M09 A302 RMK A01 T00171091  RH  044%=      5-min Rain = 0
KDVS 130845Z 11004KT 02/M09 A302 RMK A01 T00201090  RH  044%=      5-min Rain = 0
KDVS 130850Z 11004KT 02/M09 A302 RMK A01 T00221089  RH  044%=      5-min Rain = 0
KDVS 130855Z 12004KT 02/M09 A302 RMK A01 T00231089  RH  043%=      5-min Rain = 0
KDVS 130900Z 13005KT 02/M09 A302 RMK A01 T00211089  RH  044%=      5-min Rain = 0
KDVS 130905Z 14005KT 02/M09 A302 RMK A01 T00201088  RH  044%=      5-min Rain = 0
KDVS 130910Z 15005KT 02/M09 A302 RMK A01 T00201087  RH  045%=      5-min Rain = 0
KDVS 130915Z 15005KT 02/M09 A3019 RMK A01 T00211087  RH  044%=      5-min Rain = 0
KDVS 130920Z 16005KT 02/M09 A302 RMK A01 T00201087  RH  045%=      5-min Rain = 0
KDVS 130925Z 15004KT 02/M09 A302 RMK A01 T00201086  RH  045%=      5-min Rain = 0
KDVS 130930Z 14004KT 02/M09 A3019 RMK A01 T00221085  RH  045%=      5-min Rain = 0
KDVS 130935Z 14005KT 02/M08 A3019 RMK A01 T00231084  RH  045%=      5-min Rain = 0
KDVS 130940Z 14005KT 02/M08 A3019 RMK A01 T00221084  RH  045%=      5-min Rain = 0
KDVS 130945Z 14005KT 02/M08 A3019 RMK A01 T00211084  RH  046%=      5-min Rain = 0
KDVS 130950Z 13004KT 02/M08 A3019 RMK A01 T00191083  RH  046%=      5-min Rain = 0
KDVS 130955Z 14005KT 02/M08 A3019 RMK A01 T00191082  RH  047%=      5-min Rain = 0
KDVS 131000Z 15006KT 02/M08 A3019 RMK A01 T00211082  RH  046%=      5-min Rain = 0
KDVS 131005Z 16006KT 02/M08 A3019 RMK A01 T00201083  RH  046%=      5-min Rain = 0
KDVS 131010Z 16005KT 02/M09 A3019 RMK A01 T00181085  RH  046%=      5-min Rain = 0
KDVS 131015Z 16005KT 02/M09 A3019 RMK A01 T00181086  RH  046%=      5-min Rain = 0
KDVS 131020Z 15004KT 02/M09 A3019 RMK A01 T00181085  RH  046%=      5-min Rain = 0
KDVS 131025Z 15004KT 02/M08 A3019 RMK A01 T00191084  RH  046%=      5-min Rain = 0
KDVS 131030Z 15005KT 02/M08 A3019 RMK A01 T00201084  RH  046%=      5-min Rain = 0
KDVS 131035Z 14004KT 02/M08 A302 RMK A01 T00211084  RH  046%=      5-min Rain = 0
KDVS 131040Z 13004KT 02/M08 A302 RMK A01 T00211084  RH  046%=      5-min Rain = 0
KDVS 131045Z 14004KT 02/M08 A3019 RMK A01 T00201084  RH  046%=      5-min Rain = 0
KDVS 131050Z 14004KT 02/M08 A3019 RMK A01 T00191083  RH  046%=      5-min Rain = 0
KDVS 131055Z 13003KT 02/M08 A302 RMK A01 T00191083  RH  047%=      5-min Rain = 0
KDVS 131100Z 13003KT 02/M08 A302 RMK A01 T00181084  RH  047%=      5-min Rain = 0
KDVS 131105Z 12003KT 02/M09 A302 RMK A01 T00151085  RH  047%=      5-min Rain = 0
KDVS 131110Z 11003KT 01/M09 A302 RMK A01 T00121086  RH  048%=      5-min Rain = 0
KDVS 131115Z 10003KT 01/M09 A302 RMK A01 T00061089  RH  049%=      5-min Rain = 0
KDVS 131120Z 09004KT 00/09 A302 RMK A01 T00-00-89  RH  051%=      5-min Rain = 0
KDVS 131125Z 09004KT M00/M09 A302 RMK A01 T10041091  RH  052%=      5-min Rain = 0
KDVS 131130Z 11004KT M01/M09 A302 RMK A01 T10061090  RH  053%=      5-min Rain = 0
KDVS 131135Z 12004KT M00/M09 A3021 RMK A01 T10031089  RH  052%=      5-min Rain = 0
KDVS 131140Z 13003KT 00/09 A3021 RMK A01 T00-00-88  RH  051%=      5-min Rain = 0
KDVS 131145Z 12003KT 00/M09 A3021 RMK A01 T00041088  RH  050%=      5-min Rain = 0
KDVS 131150Z 13004KT 01/M09 A3021 RMK A01 T00061089  RH  049%=      5-min Rain = 0
KDVS 131155Z 13003KT 01/M09 A3021 RMK A01 T00071089  RH  049%=      5-min Rain = 0
KDVS 131200Z 13003KT 01/M09 A3021 RMK A01 T00071088  RH  049%=      5-min Rain = 0
KDVS 131205Z 13003KT 01/M09 A3022 RMK A01 T00091089  RH  048%=      5-min Rain = 0
KDVS 131210Z 12003KT 01/M09 A3022 RMK A01 T00101089  RH  048%=      5-min Rain = 0
KDVS 131215Z 12002KT 01/M09 A3022 RMK A01 T00101090  RH  047%=      5-min Rain = 0
KDVS 131220Z 11003KT 01/M09 A3022 RMK A01 T00101090  RH  047%=      5-min Rain = 0
KDVS 131225Z 11003KT 01/M09 A3022 RMK A01 T00111090  RH  047%=      5-min Rain = 0
KDVS 131230Z 09002KT 01/M09 A3022 RMK A01 T00111091  RH  046%=      5-min Rain = 0
KDVS 131235Z 07003KT 01/M09 A3023 RMK A01 T00101094  RH  046%=      5-min Rain = 0
KDVS 131240Z 06003KT 01/M09 A3023 RMK A01 T00091092  RH  047%=      5-min Rain = 0
KDVS 131245Z 06004KT 01/M09 A3023 RMK A01 T00111090  RH  047%=      5-min Rain = 0
KDVS 131250Z 07003KT 01/M09 A3023 RMK A01 T00121088  RH  047%=      5-min Rain = 0
KDVS 131255Z 08003KT 01/M09 A3023 RMK A01 T00141087  RH  047%=      5-min Rain = 0
KDVS 131300Z 08003KT 02/M09 A3023 RMK A01 T00161087  RH  046%=      5-min Rain = 0
KDVS 131305Z 08004KT 02/M09 A3024 RMK A01 T00191087  RH  045%=      5-min Rain = 0
KDVS 131310Z 08004KT 02/M09 A3024 RMK A01 T00201087  RH  045%=      5-min Rain = 0
KDVS 131315Z 08004KT 02/M09 A3024 RMK A01 T00211087  RH  044%=      5-min Rain = 0
KDVS 131320Z 09004KT 02/M09 A3024 RMK A01 T00231087  RH  044%=      5-min Rain = 0
KDVS 131325Z 08005KT 03/M09 A3024 RMK A01 T00251086  RH  044%=      5-min Rain = 0
KDVS 131330Z 08004KT 03/M09 A3024 RMK A01 T00271085  RH  043%=      5-min Rain = 0
KDVS 131335Z 08005KT 03/M08 A3024 RMK A01 T00301084  RH  043%=      5-min Rain = 0
KDVS 131340Z 09004KT 03/M08 A3024 RMK A01 T00321083  RH  042%=      5-min Rain = 0
KDVS 131345Z 10004KT 04/M08 A3025 RMK A01 T00351082  RH  042%=      5-min Rain = 0
KDVS 131350Z 10005KT 04/M08 A3025 RMK A01 T00381080  RH  041%=      5-min Rain = 0
KDVS 131355Z 11006KT 04/M08 A3025 RMK A01 T00441077  RH  041%=      5-min Rain = 0
KDVS 131400Z 11007KT 05/M07 A3026 RMK A01 T00471071  RH  042%=      5-min Rain = 0
KDVS 131405Z 10008KT 05/M07 A3026 RMK A01 T00491069  RH  042%=      5-min Rain = 0
KDVS 131410Z 11008KT 05/M07 A3026 RMK A01 T00491069  RH  042%=      5-min Rain = 0
KDVS 131415Z 11007KT 05/M07 A3026 RMK A01 T00501069  RH  042%=      5-min Rain = 0
KDVS 131420Z 11008KT 05/M07 A3026 RMK A01 T00511068  RH  042%=      5-min Rain = 0
KDVS 131425Z 11008KT 05/M07 A3027 RMK A01 T00521068  RH  041%=      5-min Rain = 0
KDVS 131430Z 11009KT 05/M07 A3027 RMK A01 T00531068  RH  041%=      5-min Rain = 0
KDVS 131435Z 11009KT 06/M07 A3027 RMK A01 T00551068  RH  041%=      5-min Rain = 0
KDVS 131440Z 11008KT 06/M07 A3027 RMK A01 T00561067  RH  041%=      5-min Rain = 0
KDVS 131445Z 11008KT 06/M07 A3028 RMK A01 T00581067  RH  040%=      5-min Rain = 0
KDVS 131450Z 11008KT 06/M07 A3028 RMK A01 T00591066  RH  040%=      5-min Rain = 0
KDVS 131455Z 11009KT 06/M07 A3028 RMK A01 T00611066  RH  040%=      5-min Rain = 0
KDVS 131500Z 11009KT 06/M07 A3028 RMK A01 T00621065  RH  040%=      5-min Rain = 0
KDVS 131505Z 12008KT 07/M07 A3028 RMK A01 T00651065  RH  039%=      5-min Rain = 0
KDVS 131510Z 12009KT 06/M06 A3028 RMK A01 T00641064  RH  039%=      5-min Rain = 0
KDVS 131515Z 11010KT 06/M06 A3029 RMK A01 T00641064  RH  040%=      5-min Rain = 0
KDVS 131520Z 12009KT 07/M06 A3029 RMK A01 T00661063  RH  039%=      5-min Rain = 0
KDVS 131525Z 12009KT 07/M06 A3029 RMK A01 T00691063  RH  039%=      5-min Rain = 0
KDVS 131530Z 13010KT 07/M06 A3029 RMK A01 T00721063  RH  038%=      5-min Rain = 0
KDVS 131535Z 12010KT 07/M06 A3029 RMK A01 T00741063  RH  037%=      5-min Rain = 0
KDVS 131540Z 13010KT 08/M06 A3029 RMK A01 T00781062  RH  036%=      5-min Rain = 0
KDVS 131545Z 13010KT 08/M06 A3029 RMK A01 T00831061  RH  035%=      5-min Rain = 0
KDVS 131550Z 12011KT 09/M06 A3029 RMK A01 T00891062  RH  034%=      5-min Rain = 0
KDVS 131555Z 13011KT 09/M06 A3029 RMK A01 T00931061  RH  033%=      5-min Rain = 0
KDVS 131600Z 13011KT 09/M06 A3029 RMK A01 T00941061  RH  033%=      5-min Rain = 0
KDVS 131605Z 14010KT 10/M06 A3029 RMK A01 T00961061  RH  033%=      5-min Rain = 0
KDVS 131610Z 14011KT 10/M06 A3029 RMK A01 T00951061  RH  033%=      5-min Rain = 0
KDVS 131615Z 13011KT 10/M06 A3029 RMK A01 T01001060  RH  032%=      5-min Rain = 0
KDVS 131620Z 13011KT 11/M06 A3029 RMK A01 T01091059  RH  030%=      5-min Rain = 0
KDVS 131625Z 14012KT 11/M06 A3029 RMK A01 T01121060  RH  029%=      5-min Rain = 0
KDVS 131630Z 14011KT 12/M06 A3029 RMK A01 T01161060  RH  029%=      5-min Rain = 0
KDVS 131635Z 12010KT 12/M06 A3028 RMK A01 T01191059  RH  029%=      5-min Rain = 0
KDVS 131640Z 13011KT 12/M06 A3028 RMK A01 T01211060  RH  028%=      5-min Rain = 0
KDVS 131645Z 15012G17KT 12/M06 A3028 RMK A01 T01191062  RH  028%=      5-min Rain = 0
KDVS 131650Z 14012KT 12/M06 A3028 RMK A01 T01201061  RH  028%=      5-min Rain = 0
KDVS 131655Z 14012KT 12/M06 A3028 RMK A01 T01231060  RH  027%=      5-min Rain = 0
KDVS 131700Z 13012KT 13/M06 A3028 RMK A01 T01271061  RH  027%=      5-min Rain = 0
KDVS 131705Z 12011KT 13/M06 A3028 RMK A01 T01271061  RH  026%=      5-min Rain = 0
KDVS 131710Z 12012KT 13/M06 A3028 RMK A01 T01291063  RH  026%=      5-min Rain = 0
KDVS 131715Z 13010G15KT 13/M06 A3028 RMK A01 T01321063  RH  025%=      5-min Rain = 0
KDVS 131720Z 15012G17KT 13/M07 A3028 RMK A01 T01341066  RH  024%=      5-min Rain = 0
KDVS 131725Z 14011KT 14/M07 A3028 RMK A01 T01361068  RH  024%=      5-min Rain = 0
KDVS 131730Z 15012KT 14/M07 A3028 RMK A01 T01381068  RH  023%=      5-min Rain = 0
KDVS 131735Z 15011KT 14/M07 A3028 RMK A01 T01401071  RH  022%=      5-min Rain = 0
KDVS 131740Z 14010G17KT 14/M07 A3028 RMK A01 T01411067  RH  023%=      5-min Rain = 0
KDVS 131745Z 13012KT 14/M07 A3028 RMK A01 T01431067  RH  023%=      5-min Rain = 0
KDVS 131750Z 13010G15KT 14/M07 A3028 RMK A01 T01421068  RH  023%=      5-min Rain = 0
KDVS 131755Z 15009G14KT 14/M07 A3027 RMK A01 T01441068  RH  023%=      5-min Rain = 0
KDVS 131800Z 13009G16KT 15/M07 A3027 RMK A01 T01451067  RH  022%=      5-min Rain = 0
KDVS 131805Z 13012G17KT 15/M07 A3027 RMK A01 T01481069  RH  022%=      5-min Rain = 0
KDVS 131810Z 13010G15KT 15/M07 A3027 RMK A01 T01501070  RH  021%=      5-min Rain = 0
KDVS 131815Z 12010G15KT 15/M07 A3027 RMK A01 T01491070  RH  021%=      5-min Rain = 0
KDVS 131820Z 13012KT 15/M07 A3027 RMK A01 T01501070  RH  021%=      5-min Rain = 0
KDVS 131825Z 14007KT 15/M07 A3027 RMK A01 T01521070  RH  021%=      5-min Rain = 0
KDVS 131830Z 16012G18KT 15/M07 A3027 RMK A01 T01531070  RH  021%=      5-min Rain = 0
KDVS 131835Z 15011G20KT 15/M07 A3026 RMK A01 T01521070  RH  021%=      5-min Rain = 0
KDVS 131840Z 13010G17KT 16/M07 A3026 RMK A01 T01581071  RH  020%=      5-min Rain = 0
KDVS 131845Z 13013G18KT 16/M07 A3026 RMK A01 T01591072  RH  020%=      5-min Rain = 0
KDVS 131850Z 14010G17KT 16/M07 A3026 RMK A01 T01571071  RH  020%=      5-min Rain = 0
KDVS 131855Z 11012G18KT 16/M08 A3026 RMK A01 T01581076  RH  019%=      5-min Rain = 0
KDVS 131900Z 12011G16KT 16/M08 A3026 RMK A01 T01591077  RH  019%=      5-min Rain = 0
KDVS 131905Z 12014G20KT 16/M08 A3026 RMK A01 T01601080  RH  019%=      5-min Rain = 0
KDVS 131910Z 11015G20KT 16/M08 A3026 RMK A01 T01611080  RH  018%=      5-min Rain = 0
KDVS 131915Z 14013G19KT 16/M08 A3026 RMK A01 T01601079  RH  019%=      5-min Rain = 0
KDVS 131920Z 12011G16KT 16/M08 A3025 RMK A01 T01601080  RH  018%=      5-min Rain = 0
KDVS 131925Z 11012KT 16/M08 A3025 RMK A01 T01561081  RH  019%=      5-min Rain = 0
KDVS 131930Z 12014G20KT 16/M08 A3025 RMK A01 T01641077  RH  018%=      5-min Rain = 0
KDVS 131935Z 11011G19KT 16/M08 A3025 RMK A01 T01581078  RH  019%=      5-min Rain = 0
KDVS 131940Z 13013G18KT 17/M08 A3025 RMK A01 T01661078  RH  018%=      5-min Rain = 0
KDVS 131945Z 13008KT 16/M08 A3024 RMK A01 T01601078  RH  019%=      5-min Rain = 0
KDVS 131950Z 11012G21KT 16/M08 A3024 RMK A01 T01601077  RH  019%=      5-min Rain = 0
KDVS 131955Z 11013G18KT 17/M08 A3024 RMK A01 T01681078  RH  018%=      5-min Rain = 0
KDVS 132000Z 10010G19KT 16/M08 A3024 RMK A01 T01641078  RH  018%=      5-min Rain = 0
KDVS 132005Z 12012G17KT 16/M08 A3024 RMK A01 T01641078  RH  018%=      5-min Rain = 0
KDVS 132010Z 12013G19KT 17/M08 A3024 RMK A01 T01651078  RH  018%=      5-min Rain = 0
KDVS 132015Z 13013G18KT 17/M08 A3023 RMK A01 T01671078  RH  018%=      5-min Rain = 0
KDVS 132020Z 10013KT 17/M08 A3023 RMK A01 T01661077  RH  018%=      5-min Rain = 0
KDVS 132025Z 11012G20KT 16/M08 A3023 RMK A01 T01631077  RH  018%=      5-min Rain = 0
KDVS 132030Z 12011G16KT 17/M08 A3023 RMK A01 T01691077  RH  018%=      5-min Rain = 0
KDVS 132035Z 13011G16KT 17/M08 A3023 RMK A01 T01671077  RH  018%=      5-min Rain = 0
KDVS 132040Z 14011G16KT 17/M08 A3023 RMK A01 T01661077  RH  018%=      5-min Rain = 0
KDVS 132045Z 15013KT 17/M08 A3023 RMK A01 T01651078  RH  018%=      5-min Rain = 0
KDVS 132050Z 15012G17KT 17/M08 A3022 RMK A01 T01661077  RH  018%=      5-min Rain = 0
KDVS 132055Z 15013G19KT 17/M08 A3022 RMK A01 T01671077  RH  018%=      5-min Rain = 0
KDVS 132100Z 15010G18KT 17/M08 A3022 RMK A01 T01691077  RH  018%=      5-min Rain = 0
KDVS 132105Z 12011G16KT 17/M08 A3021 RMK A01 T01701077  RH  018%=      5-min Rain = 0
KDVS 132110Z 12010G17KT 17/M08 A3021 RMK A01 T01711077  RH  017%=      5-min Rain = 0
KDVS 132115Z 14013G20KT 17/M08 A3021 RMK A01 T01711077  RH  018%=      5-min Rain = 0
KDVS 132120Z 12013KT 17/M08 A3021 RMK A01 T01731078  RH  017%=      5-min Rain = 0
KDVS 132125Z 14011KT 17/M08 A3021 RMK A01 T01701077  RH  018%=      5-min Rain = 0
KDVS 132130Z 13012G17KT 17/M08 A3021 RMK A01 T01701077  RH  018%=      5-min Rain = 0
KDVS 132135Z 13012G19KT 17/M08 A3021 RMK A01 T01701077  RH  018%=      5-min Rain = 0
KDVS 132140Z 12011G18KT 17/M08 A3021 RMK A01 T01691077  RH  018%=      5-min Rain = 0
KDVS 132145Z 12009G16KT 17/M08 A3021 RMK A01 T01691077  RH  018%=      5-min Rain = 0
KDVS 132150Z 13014KT 17/M08 A3021 RMK A01 T01731078  RH  017%=      5-min Rain = 0
KDVS 132155Z 13011KT 17/M08 A3021 RMK A01 T01711078  RH  017%=      5-min Rain = 0
KDVS 132200Z 12012G19KT 17/M08 A3021 RMK A01 T01711079  RH  017%=      5-min Rain = 0
KDVS 132205Z 14012G18KT 17/M08 A302 RMK A01 T01731080  RH  017%=      5-min Rain = 0
KDVS 132210Z 14012G18KT 17/M08 A302 RMK A01 T01721079  RH  017%=      5-min Rain = 0
KDVS 132215Z 11012G19KT 17/M08 A3019 RMK A01 T01711080  RH  017%=      5-min Rain = 0
KDVS 132220Z 12012KT 17/M08 A3019 RMK A01 T01701081  RH  017%=      5-min Rain = 0
KDVS 132225Z 13012G19KT 17/M08 A3019 RMK A01 T01701081  RH  017%=      5-min Rain = 0
KDVS 132230Z 13011G16KT 17/M08 A3019 RMK A01 T01691083  RH  017%=      5-min Rain = 0
KDVS 132235Z 12013G21KT 17/M08 A3019 RMK A01 T01691084  RH  017%=      5-min Rain = 0
KDVS 132240Z 12015G22KT 17/M08 A3019 RMK A01 T01701084  RH  017%=      5-min Rain = 0
KDVS 132245Z 11010KT 17/M08 A3019 RMK A01 T01691084  RH  017%=      5-min Rain = 0
KDVS 132250Z 13013G18KT 17/M08 A3019 RMK A01 T01701084  RH  017%=      5-min Rain = 0
KDVS 132255Z 14011KT 17/M09 A302 RMK A01 T01681085  RH  017%=      5-min Rain = 0
KDVS 132300Z 14011G16KT 17/M09 A302 RMK A01 T01701086  RH  017%=      5-min Rain = 0
KDVS 132305Z 14011KT 17/M09 A302 RMK A01 T01701086  RH  017%=      5-min Rain = 0
KDVS 132310Z 14012KT 17/M09 A302 RMK A01 T01691086  RH  017%=      5-min Rain = 0
KDVS 132315Z 15012KT 17/M09 A3019 RMK A01 T01661086  RH  017%=      5-min Rain = 0
KDVS 132320Z 11010KT 17/M09 A3019 RMK A01 T01661088  RH  017%=      5-min Rain = 0
KDVS 132325Z 14012KT 17/M09 A3019 RMK A01 T01671087  RH  017%=      5-min Rain = 0
KDVS 132330Z 14013G19KT 17/M09 A3019 RMK A01 T01651087  RH  017%=      5-min Rain = 0
KDVS 132335Z 13011KT 17/M09 A302 RMK A01 T01651087  RH  017%=      5-min Rain = 0
KDVS 132340Z 12013KT 16/M09 A302 RMK A01 T01621089  RH  017%=      5-min Rain = 0
KDVS 132345Z 11013KT 16/M09 A302 RMK A01 T01591088  RH  017%=      5-min Rain = 0
KDVS 132350Z 12011KT 16/M09 A302 RMK A01 T01561087  RH  018%=      5-min Rain = 0
KDVS 132355Z 13010G15KT 16/M09 A302 RMK A01 T01571088  RH  018%=      5-min Rain = 0
KDVS 140000Z 13013KT 16/M09 A302 RMK A01 T01561089  RH  018%=      5-min Rain = 0
KDVS 140005Z 13011KT 16/M09 A3021 RMK A01 T01551089  RH  018%=      5-min Rain = 0
KDVS 140010Z 13011KT 16/M09 A3021 RMK A01 T01551089  RH  018%=      5-min Rain = 0
KDVS 140015Z 13009G14KT 15/M09 A3021 RMK A01 T01491090  RH  018%=      5-min Rain = 0
KDVS 140020Z 13011KT 15/M09 A3021 RMK A01 T01451090  RH  019%=      5-min Rain = 0
KDVS 140025Z 12010KT 14/M09 A3021 RMK A01 T01421090  RH  019%=      5-min Rain = 0
KDVS 140030Z 13010KT 14/M09 A3022 RMK A01 T01401089  RH  020%=      5-min Rain = 0
KDVS 140035Z 12009KT 14/M09 A3022 RMK A01 T01381088  RH  020%=      5-min Rain = 0
KDVS 140040Z 12009KT 14/M09 A3022 RMK A01 T01361088  RH  020%=      5-min Rain = 0
KDVS 140045Z 13008KT 14/M09 A3022 RMK A01 T01351088  RH  020%=      5-min Rain = 0
KDVS 140050Z 12008KT 13/M09 A3022 RMK A01 T01331087  RH  021%=      5-min Rain = 0
KDVS 140055Z 12009KT 13/M09 A3022 RMK A01 T01301087  RH  021%=      5-min Rain = 0
KDVS 140100Z 12008KT 13/M09 A3022 RMK A01 T01301086  RH  021%=      5-min Rain = 0
KDVS 140105Z 12009KT 13/M09 A3022 RMK A01 T01271086  RH  022%=      5-min Rain = 0
KDVS 140110Z 12008KT 13/M09 A3022 RMK A01 T01251085  RH  022%=      5-min Rain = 0
KDVS 140115Z 12008KT 12/M09 A3022 RMK A01 T01221086  RH  023%=      5-min Rain = 0
KDVS 140120Z 12008KT 12/M09 A3023 RMK A01 T01191085  RH  023%=      5-min Rain = 0
KDVS 140125Z 12008KT 12/M09 A3022 RMK A01 T01181085  RH  023%=      5-min Rain = 0
KDVS 140130Z 12008KT 12/M08 A3022 RMK A01 T01171084  RH  024%=      5-min Rain = 0
KDVS 140135Z 11008KT 12/M08 A3023 RMK A01 T01161083  RH  024%=      5-min Rain = 0
KDVS 140140Z 11008KT 11/M08 A3023 RMK A01 T01141083  RH  024%=      5-min Rain = 0
KDVS 140145Z 12008KT 11/M08 A3023 RMK A01 T01101083  RH  025%=      5-min Rain = 0
KDVS 140150Z 12008KT 11/M08 A3023 RMK A01 T01071083  RH  025%=      5-min Rain = 0
KDVS 140155Z 12008KT 10/M08 A3023 RMK A01 T01041083  RH  026%=      5-min Rain = 0
KDVS 140200Z 12007KT 10/M08 A3024 RMK A01 T01021082  RH  027%=      5-min Rain = 0
KDVS 140205Z 12007KT 10/M08 A3024 RMK A01 T01001082  RH  027%=      5-min Rain = 0
KDVS 140210Z 12007KT 10/M08 A3024 RMK A01 T00961082  RH  028%=      5-min Rain = 0
KDVS 140215Z 11008KT 10/M08 A3024 RMK A01 T00951081  RH  028%=      5-min Rain = 0
KDVS 140220Z 11010KT 10/M08 A3024 RMK A01 T01001078  RH  028%=      5-min Rain = 0
KDVS 140225Z 11010KT 11/M08 A3024 RMK A01 T01051076  RH  027%=      5-min Rain = 0
KDVS 140230Z 11010KT 11/M08 A3024 RMK A01 T01061075  RH  027%=      5-min Rain = 0
KDVS 140235Z 11010KT 11/M07 A3024 RMK A01 T01051074  RH  028%=      5-min Rain = 0
KDVS 140240Z 11011KT 10/M07 A3024 RMK A01 T01041074  RH  028%=      5-min Rain = 0
KDVS 140245Z 11011KT 11/M07 A3025 RMK A01 T01051074  RH  028%=      5-min Rain = 0
KDVS 140250Z 11010KT 10/M07 A3025 RMK A01 T01041074  RH  028%=      5-min Rain = 0
KDVS 140255Z 11010KT 10/M07 A3025 RMK A01 T01041074  RH  028%=      5-min Rain = 0
KDVS 140300Z 11011KT 10/M07 A3025 RMK A01 T01041074  RH  028%=      5-min Rain = 0
KDVS 140305Z 11012KT 10/M07 A3026 RMK A01 T01041074  RH  028%=      5-min Rain = 0
KDVS 140310Z 11010KT 10/M08 A3026 RMK A01 T01021075  RH  028%=      5-min Rain = 0
KDVS 140315Z 12012KT 10/M08 A3026 RMK A01 T01011075  RH  028%=      5-min Rain = 0
KDVS 140320Z 11012KT 10/M08 A3026 RMK A01 T01011076  RH  028%=      5-min Rain = 0
KDVS 140325Z 11011KT 10/M08 A3027 RMK A01 T01001076  RH  028%=      5-min Rain = 0
KDVS 140330Z 11011KT 10/M08 A3027 RMK A01 T00991076  RH  028%=      5-min Rain = 0
KDVS 140335Z 11012KT 10/M08 A3027 RMK A01 T00991076  RH  028%=      5-min Rain = 0
KDVS 140340Z 11011KT 10/M08 A3027 RMK A01 T00981076  RH  029%=      5-min Rain = 0
KDVS 140345Z 11011KT 10/M08 A3027 RMK A01 T00971077  RH  029%=      5-min Rain = 0
KDVS 140350Z 11011KT 10/M08 A3027 RMK A01 T00961077  RH  029%=      5-min Rain = 0
KDVS 140355Z 11011G16KT 09/M08 A3028 RMK A01 T00941077  RH  029%=      5-min Rain = 0
KDVS 140400Z 11011KT 09/M08 A3028 RMK A01 T00941077  RH  029%=      5-min Rain = 0
KDVS 140405Z 12011KT 09/M08 A3028 RMK A01 T00931077  RH  029%=      5-min Rain = 0
KDVS 140410Z 11012KT 09/M08 A3028 RMK A01 T00931077  RH  029%=      5-min Rain = 0
KDVS 140415Z 12012KT 09/M08 A3028 RMK A01 T00921078  RH  029%=      5-min Rain = 0
KDVS 140420Z 12011KT 09/M08 A3028 RMK A01 T00901078  RH  030%=      5-min Rain = 0
KDVS 140425Z 12011KT 09/M08 A3029 RMK A01 T00881078  RH  030%=      5-min Rain = 0
KDVS 140430Z 12011KT 09/M08 A3029 RMK A01 T00861078  RH  030%=      5-min Rain = 0
KDVS 140435Z 12011KT 08/M08 A3029 RMK A01 T00841078  RH  031%=      5-min Rain = 0
KDVS 140440Z 12010KT 08/M08 A3029 RMK A01 T00821078  RH  031%=      5-min Rain = 0
KDVS 140445Z 11010KT 08/M08 A3029 RMK A01 T00801078  RH  032%=      5-min Rain = 0
KDVS 140450Z 12011G16KT 08/M08 A3029 RMK A01 T00801079  RH  032%=      5-min Rain = 0
KDVS 140455Z 11011KT 08/M08 A3029 RMK A01 T00791079  RH  032%=      5-min Rain = 0
KDVS 140500Z 11011KT 08/M08 A3028 RMK A01 T00781079  RH  032%=      5-min Rain = 0

Page generated in 0.0143 seconds.